createdAt,value
2024-02-28T00:02:00.667Z,15.14
2024-02-28T00:05:02.973Z,15.19
2024-02-28T00:08:05.762Z,15.12
2024-02-28T00:11:08.068Z,15.07
2024-02-28T00:14:11.168Z,15.09
2024-02-28T00:17:14.742Z,15.02
2024-02-28T00:24:49.426Z,14.96
2024-02-28T00:27:51.933Z,14.92
2024-02-28T00:30:54.838Z,14.88
2024-02-28T00:33:57.074Z,14.83
2024-02-28T00:36:59.747Z,14.82
2024-02-28T00:40:02.253Z,14.78
2024-02-28T00:43:05.051Z,14.73
2024-02-28T00:46:12.635Z,14.72
2024-02-28T00:49:15.209Z,14.72
2024-02-28T00:52:17.766Z,14.68
2024-02-28T00:55:20.832Z,14.64
2024-02-28T00:58:22.956Z,14.62
2024-02-28T01:01:25.472Z,14.59
2024-02-28T01:04:28.089Z,14.55
2024-02-28T01:07:30.944Z,14.52
2024-02-28T01:10:33.297Z,14.51
2024-02-28T01:13:36.114Z,14.48
2024-02-28T01:16:39.487Z,14.45
2024-02-28T01:19:41.964Z,14.44
2024-02-28T01:22:44.277Z,14.42
2024-02-28T01:25:47.667Z,14.46
2024-02-28T01:28:51.420Z,14.54
2024-02-28T01:31:54.127Z,14.62
2024-02-28T01:34:56.386Z,14.73
2024-02-28T01:37:59.493Z,14.79
2024-02-28T01:41:01.704Z,14.89
2024-02-28T01:44:04.417Z,14.98
2024-02-28T01:47:07.412Z,14.99
2024-02-28T01:50:10.974Z,15.07
2024-02-28T01:53:14.988Z,15.10
2024-02-28T01:56:18.547Z,15.12
2024-02-28T01:59:20.977Z,15.12
2024-02-28T02:02:23.729Z,15.09
2024-02-28T02:05:26.394Z,15.07
2024-02-28T02:08:29.555Z,15.07
2024-02-28T02:11:31.820Z,15.12
2024-02-28T02:14:34.684Z,15.18
2024-02-28T02:17:37.266Z,15.20
2024-02-28T02:20:44.520Z,15.26
2024-02-28T02:23:47.511Z,15.32
2024-02-28T02:26:52.885Z,15.37
2024-02-28T02:29:54.977Z,15.36
2024-02-28T02:32:57.850Z,15.34
2024-02-28T02:36:00.225Z,15.34
2024-02-28T02:39:03.162Z,15.32
2024-02-28T02:42:05.539Z,15.26
2024-02-28T02:45:08.350Z,15.23
2024-02-28T02:48:10.887Z,15.19
2024-02-28T02:51:13.678Z,15.16
2024-02-28T02:54:15.798Z,15.13
2024-02-28T02:57:18.627Z,15.13
2024-02-28T03:00:21.119Z,15.22
2024-02-28T03:03:24.169Z,15.27
2024-02-28T03:06:26.743Z,15.32
2024-02-28T03:09:29.897Z,15.37
2024-02-28T03:12:32.433Z,15.42
2024-02-28T03:15:35.483Z,15.49
2024-02-28T03:18:37.762Z,15.51
2024-02-28T03:21:40.465Z,15.58
2024-02-28T03:24:42.841Z,15.58
2024-02-28T03:27:45.550Z,15.64
2024-02-28T03:30:48.389Z,15.61
2024-02-28T03:33:51.299Z,15.64
2024-02-28T03:36:53.860Z,15.56
2024-02-28T03:39:57.075Z,15.61
2024-02-28T03:43:00.612Z,15.54
2024-02-28T03:46:03.356Z,15.51
2024-02-28T03:49:05.572Z,15.47
2024-02-28T03:52:08.484Z,15.44
2024-02-28T03:55:11.933Z,15.40
2024-02-28T03:58:15.139Z,15.40
2024-02-28T04:01:17.486Z,15.34
2024-02-28T04:04:21.237Z,15.27
2024-02-28T04:07:23.557Z,15.26
2024-02-28T04:10:26.478Z,15.19
2024-02-28T04:13:28.966Z,15.16
2024-02-28T04:16:31.645Z,15.12
2024-02-28T04:19:38.864Z,15.09
2024-02-28T04:22:41.750Z,15.09
2024-02-28T04:25:44.816Z,15.06
2024-02-28T04:28:47.618Z,15.02
2024-02-28T04:31:50.050Z,15.02
2024-02-28T04:34:53.273Z,14.98
2024-02-28T04:37:55.561Z,14.98
2024-02-28T04:40:58.841Z,14.98
2024-02-28T04:44:01.550Z,14.93
2024-02-28T04:47:04.529Z,14.98
2024-02-28T04:50:07.727Z,15.03
2024-02-28T04:53:10.585Z,15.07
2024-02-28T04:56:12.645Z,15.18
2024-02-28T04:59:16.841Z,15.22
2024-02-28T05:02:20.682Z,15.30
2024-02-28T05:05:23.423Z,15.39
2024-02-28T05:08:25.889Z,15.46
2024-02-28T05:11:28.537Z,15.53
2024-02-28T05:14:30.700Z,15.57
2024-02-28T05:17:33.829Z,15.60
2024-02-28T05:20:36.826Z,15.64
2024-02-28T05:23:39.337Z,15.68
2024-02-28T05:26:41.969Z,15.73
2024-02-28T05:29:45.021Z,15.71
2024-02-28T05:32:47.162Z,15.71
2024-02-28T05:35:50.495Z,15.70
2024-02-28T05:38:53.681Z,15.70
2024-02-28T05:41:56.603Z,12.85
2024-02-28T05:44:58.829Z,10.77
2024-02-28T05:48:01.542Z,10.20
2024-02-28T05:51:04.732Z,10.19
2024-02-28T05:54:07.370Z,10.34
2024-02-28T05:57:09.491Z,10.17
2024-02-28T06:00:12.628Z,10.59
2024-02-28T06:03:15.080Z,10.56
2024-02-28T06:06:18.677Z,10.08
2024-02-28T06:09:21.051Z,10.22
2024-02-28T06:12:23.704Z,9.42
2024-02-28T06:15:26.266Z,8.90
2024-02-28T06:18:29.228Z,8.84
2024-02-28T06:21:31.450Z,8.77
2024-02-28T06:24:35.956Z,8.50
2024-02-28T06:27:38.350Z,8.65
2024-02-28T06:30:41.769Z,8.49
2024-02-28T06:33:45.503Z,8.41
2024-02-28T06:36:48.061Z,8.41
2024-02-28T06:39:50.340Z,8.33
2024-02-28T06:42:52.908Z,8.50
2024-02-28T06:45:55.920Z,8.99
2024-02-28T06:48:58.915Z,9.39
2024-02-28T06:52:02.861Z,9.78
2024-02-28T06:55:11.416Z,10.17
2024-02-28T06:58:14.027Z,10.60
2024-02-28T07:01:17.051Z,10.95
2024-02-28T07:04:19.141Z,11.75
2024-02-28T07:07:21.688Z,11.83
2024-02-28T07:10:24.826Z,12.17
2024-02-28T07:13:28.505Z,12.74
2024-02-28T07:16:31.409Z,12.95
2024-02-28T07:19:33.906Z,12.80
2024-02-28T07:22:36.138Z,13.12
2024-02-28T07:25:38.879Z,13.27
2024-02-28T07:28:41.018Z,12.42
2024-02-28T07:31:44.044Z,13.01
2024-02-28T07:34:46.278Z,12.94
2024-02-28T07:37:48.830Z,13.16
2024-02-28T07:40:51.492Z,12.89
2024-02-28T07:43:54.812Z,12.61
2024-02-28T07:46:57.072Z,12.62
2024-02-28T07:49:59.567Z,10.80
2024-02-28T07:53:02.057Z,9.67
2024-02-28T07:56:06.042Z,9.30
2024-02-28T07:59:08.649Z,9.26
2024-02-28T08:02:15.136Z,9.11
2024-02-28T08:05:19.069Z,11.56
2024-02-28T08:08:22.028Z,12.52
2024-02-28T08:11:25.097Z,13.20
2024-02-28T08:14:28.662Z,13.16
2024-02-28T08:17:31.186Z,12.94
2024-02-28T08:20:33.771Z,13.32
2024-02-28T08:23:35.950Z,13.23
2024-02-28T08:26:38.866Z,13.25
2024-02-28T08:29:44.927Z,13.09
2024-02-28T08:32:47.483Z,13.69
2024-02-28T08:35:51.546Z,13.67
2024-02-28T08:38:54.409Z,13.16
2024-02-28T08:41:56.917Z,13.42
2024-02-28T08:45:01.261Z,13.60
2024-02-28T08:48:04.008Z,13.50
2024-02-28T08:51:06.814Z,12.75
2024-02-28T08:54:09.245Z,12.40
2024-02-28T09:01:47.227Z,12.42
2024-02-28T09:04:53.522Z,12.58
2024-02-28T09:07:58.499Z,13.97
2024-02-28T09:11:02.076Z,13.23
2024-02-28T09:14:04.806Z,12.80
2024-02-28T09:17:07.069Z,13.02
2024-02-28T09:20:10.414Z,12.88
2024-02-28T09:23:12.620Z,13.22
2024-02-28T09:26:15.553Z,13.73
2024-02-28T09:29:18.238Z,14.18
2024-02-28T09:32:21.172Z,13.66
2024-02-28T09:35:23.602Z,14.48
2024-02-28T09:38:26.415Z,14.82
2024-02-28T09:41:29.283Z,15.04
2024-02-28T09:44:32.312Z,15.10
2024-02-28T09:47:37.720Z,15.22
2024-02-28T09:50:40.819Z,15.20
2024-02-28T09:53:43.360Z,14.73
2024-02-28T09:56:46.410Z,15.09
2024-02-28T09:59:54.525Z,15.19
2024-02-28T10:02:59.760Z,14.49
2024-02-28T10:06:05.469Z,14.25
2024-02-28T10:09:08.944Z,14.81
2024-02-28T10:12:11.617Z,14.92
2024-02-28T10:15:14.424Z,13.74
2024-02-28T10:18:16.769Z,14.18
2024-02-28T10:21:19.317Z,14.38
2024-02-28T10:24:22.260Z,13.91
2024-02-28T10:27:25.407Z,13.49
2024-02-28T10:30:28.032Z,13.11
2024-02-28T10:33:30.847Z,13.29
2024-02-28T10:36:34.075Z,13.15
2024-02-28T10:39:37.773Z,12.58
2024-02-28T10:42:45.089Z,13.09
2024-02-28T10:46:06.906Z,13.50
2024-02-28T10:49:11.939Z,14.20
2024-02-28T10:52:16.695Z,14.22
2024-02-28T10:55:26.747Z,14.10
2024-02-28T10:58:36.153Z,13.18
2024-02-28T11:01:43.156Z,13.33
2024-02-28T11:04:46.029Z,13.55
2024-02-28T11:07:53.096Z,13.70
2024-02-28T11:11:01.177Z,13.84
2024-02-28T11:14:03.410Z,14.40
2024-02-28T11:17:07.211Z,13.40
2024-02-28T11:20:14.527Z,13.32
2024-02-28T11:23:19.129Z,13.27
2024-02-28T11:26:23.353Z,12.96
2024-02-28T11:29:30.480Z,12.55
2024-02-28T11:32:33.972Z,12.74
2024-02-28T11:35:36.888Z,12.88
2024-02-28T11:38:40.530Z,13.01
2024-02-28T11:41:47.396Z,13.45
2024-02-28T11:45:00.908Z,13.29
2024-02-28T11:48:06.136Z,13.42
2024-02-28T11:51:08.421Z,13.71
2024-02-28T11:54:15.016Z,13.74
2024-02-28T11:57:18.567Z,14.24
2024-02-28T12:00:21.340Z,14.46
2024-02-28T12:03:24.946Z,14.52
2024-02-28T12:06:27.843Z,14.27
2024-02-28T12:09:35.283Z,14.64
2024-02-28T12:12:45.971Z,14.59
2024-02-28T12:15:49.990Z,14.79
2024-02-28T12:18:53.874Z,14.49
2024-02-28T12:26:29.869Z,15.49
2024-02-28T12:29:33.019Z,15.54
2024-02-28T12:37:10.277Z,15.53
2024-02-28T12:40:12.629Z,15.95
2024-02-28T12:43:15.839Z,15.32
2024-02-28T12:46:18.156Z,15.93
2024-02-28T12:49:21.029Z,16.47
2024-02-28T12:52:23.515Z,16.90
2024-02-28T12:55:26.118Z,16.42
2024-02-28T12:58:28.367Z,16.12
2024-02-28T13:01:32.124Z,16.33
2024-02-28T13:04:34.735Z,16.44
2024-02-28T13:07:37.911Z,16.68
2024-02-28T13:10:43.143Z,16.55
2024-02-28T13:13:46.124Z,16.62
2024-02-28T13:16:50.383Z,16.48
2024-02-28T13:19:53.090Z,17.07
2024-02-28T13:22:55.702Z,16.99
2024-02-28T13:25:59.213Z,17.11
2024-02-28T13:29:02.183Z,17.44
2024-02-28T13:32:05.644Z,17.61
2024-02-28T13:35:08.960Z,17.60
2024-02-28T13:38:12.217Z,17.70
2024-02-28T13:41:15.725Z,17.33
2024-02-28T13:44:20.270Z,17.34
2024-02-28T13:47:25.693Z,17.00
2024-02-28T13:50:33.603Z,17.03
2024-02-28T13:53:36.851Z,16.92
2024-02-28T13:56:40.978Z,17.03
2024-02-28T13:59:50.600Z,17.20
2024-02-28T14:02:56.617Z,17.64
2024-02-28T14:05:59.238Z,18.06
2024-02-28T14:09:02.430Z,18.33
2024-02-28T14:12:05.410Z,17.99
2024-02-28T14:15:10.999Z,17.57
2024-02-28T14:18:14.706Z,17.38
2024-02-28T14:21:18.385Z,15.70
2024-02-28T14:24:21.760Z,16.79
2024-02-28T14:27:26.885Z,17.43
2024-02-28T14:30:29.887Z,17.89
2024-02-28T14:33:33.123Z,17.86
2024-02-28T14:36:35.385Z,17.73
2024-02-28T14:39:38.951Z,16.25
2024-02-28T14:42:43.339Z,16.41
2024-02-28T14:45:46.187Z,15.97
2024-02-28T14:48:52.639Z,15.30
2024-02-28T14:51:56.948Z,15.84
2024-02-28T14:54:59.703Z,16.94
2024-02-28T14:58:02.402Z,16.75
2024-02-28T15:01:06.422Z,17.14
2024-02-28T15:04:10.719Z,17.47
2024-02-28T15:07:13.046Z,17.58
2024-02-28T15:10:15.764Z,17.50
2024-02-28T15:13:18.026Z,16.73
2024-02-28T15:16:21.074Z,17.06
2024-02-28T15:19:23.344Z,16.76
2024-02-28T15:22:25.966Z,16.18
2024-02-28T15:25:28.104Z,16.77
2024-02-28T15:28:32.283Z,16.80
2024-02-28T15:31:34.622Z,17.10
2024-02-28T15:34:37.333Z,17.85
2024-02-28T15:37:39.907Z,17.71
2024-02-28T15:40:42.924Z,17.98
2024-02-28T15:43:45.307Z,17.74
2024-02-28T15:46:48.317Z,17.03
2024-02-28T15:49:50.841Z,17.43
2024-02-28T15:52:54.707Z,17.64
2024-02-28T15:55:57.360Z,17.71
2024-02-28T15:59:01.917Z,17.94
2024-02-28T16:02:05.294Z,18.18
2024-02-28T16:05:08.929Z,18.66
2024-02-28T16:08:11.837Z,18.80
2024-02-28T16:15:49.503Z,19.07
2024-02-28T16:18:52.591Z,19.18
2024-02-28T16:21:56.326Z,19.12
2024-02-28T16:24:58.955Z,18.99
2024-02-28T16:28:03.464Z,18.43
2024-02-28T16:31:07.685Z,18.80
2024-02-28T16:34:14.028Z,18.73
2024-02-28T16:37:19.093Z,18.86
2024-02-28T16:40:22.689Z,18.76
2024-02-28T16:43:24.989Z,18.84
2024-02-28T16:46:27.990Z,18.71
2024-02-28T16:49:30.429Z,18.36
2024-02-28T16:52:34.436Z,18.19
2024-02-28T16:55:37.235Z,18.12
2024-02-28T16:58:44.310Z,18.02
2024-02-28T17:01:48.806Z,17.74
2024-02-28T17:04:51.842Z,18.24
2024-02-28T17:07:55.238Z,18.49
2024-02-28T17:10:59.162Z,18.56
2024-02-28T17:14:01.709Z,18.89
2024-02-28T17:17:04.784Z,18.53
2024-02-28T17:20:08.686Z,18.26
2024-02-28T17:23:11.375Z,18.06
2024-02-28T17:26:13.509Z,18.06
2024-02-28T17:29:17.594Z,18.29
2024-02-28T17:32:20.182Z,18.46
2024-02-28T17:35:23.282Z,18.19
2024-02-28T17:38:25.631Z,18.53
2024-02-28T17:41:29.631Z,17.81
2024-02-28T17:44:32.104Z,18.22
2024-02-28T17:47:34.783Z,17.77
2024-02-28T17:50:37.014Z,17.53
2024-02-28T17:53:41.158Z,17.33
2024-02-28T17:56:43.384Z,17.63
2024-02-28T17:59:45.997Z,17.55
2024-02-28T18:02:48.697Z,18.53
2024-02-28T18:05:51.404Z,18.04
2024-02-28T18:08:53.549Z,16.80
2024-02-28T18:11:56.300Z,16.55
2024-02-28T18:14:58.519Z,15.23
2024-02-28T18:18:01.449Z,12.94
2024-02-28T18:25:38.402Z,17.19
2024-02-28T18:28:40.576Z,17.70
2024-02-28T18:31:43.115Z,17.26
2024-02-28T18:34:45.535Z,17.38
2024-02-28T18:37:48.382Z,17.44
2024-02-28T18:40:50.464Z,17.75
2024-02-28T18:43:53.319Z,16.99
2024-02-28T18:46:55.503Z,17.55
2024-02-28T18:49:58.470Z,17.37
2024-02-28T18:53:00.700Z,17.14
2024-02-28T18:56:05.432Z,16.94
2024-02-28T18:59:09.019Z,16.87
2024-02-28T19:02:11.707Z,16.70
2024-02-28T19:05:15.120Z,16.83
2024-02-28T19:08:18.198Z,17.11
2024-02-28T19:11:21.470Z,17.09
2024-02-28T19:14:24.149Z,16.92
2024-02-28T19:17:26.761Z,16.05
2024-02-28T19:20:29.808Z,16.12
2024-02-28T19:23:32.422Z,16.48
2024-02-28T19:26:35.369Z,16.66
2024-02-28T19:29:37.681Z,17.21
2024-02-28T19:32:42.131Z,16.59
2024-02-28T19:35:45.553Z,16.38
2024-02-28T19:38:49.117Z,16.29
2024-02-28T19:41:51.178Z,16.07
2024-02-28T19:44:53.635Z,16.05
2024-02-28T19:47:56.543Z,16.45
2024-02-28T19:50:59.283Z,16.44
2024-02-28T19:54:02.604Z,16.56
2024-02-28T19:57:05.577Z,16.30
2024-02-28T20:00:11.352Z,16.32
2024-02-28T20:03:14.147Z,16.47
2024-02-28T20:06:16.450Z,16.00
2024-02-28T20:09:19.151Z,16.04
2024-02-28T20:12:22.012Z,16.29
2024-02-28T20:15:26.774Z,15.73
2024-02-28T20:23:00.622Z,15.42
2024-02-28T20:26:04.817Z,15.84
2024-02-28T20:29:09.022Z,15.34
2024-02-28T20:32:11.358Z,15.30
2024-02-28T20:35:14.055Z,15.13
2024-02-28T20:38:17.644Z,15.51
2024-02-28T20:41:20.507Z,15.70
2024-02-28T20:44:23.720Z,15.81
2024-02-28T20:47:26.522Z,15.42
2024-02-28T20:50:30.512Z,15.75
2024-02-28T20:53:35.124Z,15.87
2024-02-28T20:56:40.423Z,15.60
2024-02-28T20:59:43.213Z,15.57
2024-02-28T21:02:45.842Z,15.94
2024-02-28T21:05:50.253Z,15.40
2024-02-28T21:08:53.694Z,15.12
2024-02-28T21:12:06.663Z,16.00
2024-02-28T21:15:09.494Z,15.97
2024-02-28T21:18:12.212Z,16.08
2024-02-28T21:21:14.458Z,15.67
2024-02-28T21:24:18.046Z,15.53
2024-02-28T21:27:20.629Z,15.40
2024-02-28T21:30:23.311Z,15.24
2024-02-28T21:33:25.453Z,15.30
2024-02-28T21:36:28.595Z,14.44
2024-02-28T21:39:33.574Z,14.76
2024-02-28T21:42:36.449Z,14.85
2024-02-28T21:45:38.821Z,15.22
2024-02-28T21:48:41.618Z,15.12
2024-02-28T21:51:43.909Z,15.39
2024-02-28T21:54:46.584Z,15.60
2024-02-28T21:57:48.776Z,15.40
2024-02-28T22:00:51.801Z,15.04
2024-02-28T22:03:54.191Z,15.34
2024-02-28T22:06:57.699Z,15.30
2024-02-28T22:09:59.946Z,15.20
2024-02-28T22:13:03.101Z,15.51
2024-02-28T22:16:05.983Z,15.51
2024-02-28T22:19:09.923Z,15.64
2024-02-28T22:22:13.126Z,15.53
2024-02-28T22:25:16.350Z,15.54
2024-02-28T22:28:18.500Z,15.12
2024-02-28T22:31:21.202Z,16.18
2024-02-28T22:34:23.793Z,15.74
2024-02-28T22:37:26.387Z,15.51
2024-02-28T22:40:28.766Z,16.09
2024-02-28T22:43:31.613Z,15.84
2024-02-28T22:46:33.836Z,16.09
2024-02-28T22:49:36.819Z,15.61
2024-02-28T22:52:38.944Z,15.46
2024-02-28T22:55:42.574Z,15.29
2024-02-28T22:58:44.879Z,15.19
2024-02-28T23:01:49.532Z,15.66
2024-02-28T23:04:51.960Z,16.01
2024-02-28T23:07:55.420Z,15.77
2024-02-28T23:10:57.618Z,15.74
2024-02-28T23:14:00.077Z,16.41
2024-02-28T23:17:02.344Z,15.93
2024-02-28T23:20:06.856Z,15.10
2024-02-28T23:23:11.267Z,14.73
2024-02-28T23:26:13.825Z,14.99
2024-02-28T23:29:16.481Z,14.79
2024-02-28T23:32:19.095Z,15.30
2024-02-28T23:35:21.819Z,15.58
2024-02-28T23:38:25.129Z,15.60
2024-02-28T23:41:29.994Z,15.26
2024-02-28T23:44:32.904Z,15.40
2024-02-28T23:47:35.408Z,14.88
2024-02-28T23:50:38.317Z,14.30
2024-02-28T23:53:40.469Z,14.06
2024-02-28T23:56:43.287Z,13.71
2024-02-28T23:59:45.570Z,14.42
